Latest Weather Observations for Emerald

IDQ60801

Issued at 12:32 am EST Friday 31 March 2017 (issued every 30 minutes, with the page automatically refreshed every 10 minutes)

About weather observations | Map of weather stations | Latest weather observations for QLD | Other Formats
Station Details ID: 035264 Name: EMERALD AIRPORT Lat: -23.57 Lon: 148.18 Height: 189.4 m
Data from the previous 72 hours. | See also: Recent months at Emerald
Date/Time
EST
Temp
°C
App
Temp
°C
Dew
Point
°C
Rel
Hum
%
Delta-T
°C
Wind Press
QNH
hPa
Press
MSL
hPa
Rain since
9am
mm
Dir  Spd
km/h
Gust
km/h
Spd
kts
Gust
kts
31/12:30am 22.7 22.3 16.3 67 3.9 WSW 13 17 7 9 1009.9 - 0.0
31/12:00am 23.6 22.0 16.1 62 4.6 WSW 19 22 10 12 1009.7 1008.6 0.0
 
Date/Time
EST
Temp
°C
App
Temp
°C
Dew
Point
°C
Rel
Hum
%
Delta-T
°C
Wind Press
QNH
hPa
Press
MSL
hPa
Rain since
9am
mm
Dir  Spd
km/h
Gust
km/h
Spd
kts
Gust
kts
30/11:30pm 24.0 22.4 16.5 63 4.6 WSW 20 24 11 13 1009.3 - 0.0
30/11:00pm 24.6 23.5 17.3 64 4.6 WSW 19 22 10 12 1009.3 - 0.0
30/10:30pm 24.7 24.2 18.6 69 3.9 WSW 19 20 10 11 1009.2 - 0.0
30/10:00pm 25.7 26.0 19.6 69 4.0 W 17 20 9 11 1009.1 - 0.0
30/09:30pm 25.8 27.4 20.8 74 3.3 W 13 15 7 8 1008.8 - 0.0
30/09:00pm 26.3 29.0 21.3 74 3.3 W 9 13 5 7 1008.5 1007.4 0.0
30/08:30pm 25.7 28.9 21.6 78 2.7 W 7 7 4 4 1008.0 - 0.0
30/08:00pm 27.9 30.2 20.7 65 4.8 WNW 9 11 5 6 1007.5 - 0.0
30/07:30pm 29.0 31.1 20.2 59 5.8 WNW 9 11 5 6 1006.8 - 0.0
30/07:00pm 28.4 31.1 20.7 63 5.1 NNW 7 9 4 5 1006.2 - 0.0
30/06:30pm 30.0 33.0 20.8 57 6.2 W 6 9 3 5 1005.8 - 0.0
30/06:00pm 31.0 33.1 20.9 55 6.8 WSW 11 13 6 7 1005.6 1004.5 0.0
30/05:30pm 32.2 32.2 20.1 48 8.1 SW 20 26 11 14 1005.2 - 0.0
30/05:00pm 32.9 31.5 19.7 45 8.8 SW 26 41 14 22 1004.8 - 0.0
30/04:30pm 33.1 31.6 20.3 47 8.6 SW 28 39 15 21 1004.4 - 0.0
30/04:00pm 33.1 30.8 20.6 47 8.4 WSW 33 48 18 26 1004.2 - 0.0
30/03:41pm 33.3 30.8 20.1 45 8.8 WSW 33 52 18 28 1004.1 - 0.0
30/03:30pm 33.2 29.3 20.4 47 8.6 WSW 41 52 22 28 1004.0 - 0.0
30/03:00pm 32.9 29.2 20.8 49 8.2 WSW 41 61 22 33 1003.8 1002.7 0.0
30/02:59pm 32.7 29.4 20.9 49 8.0 WSW 39 61 21 33 1003.8 - 0.0
30/02:30pm 32.3 28.8 21.8 54 7.2 WSW 43 57 23 31 1003.8 - 0.0
30/02:00pm 31.4 28.2 21.8 56 6.5 WSW 41 56 22 30 1004.1 - 0.0
30/01:30pm 31.0 27.3 21.8 58 6.3 WSW 44 59 24 32 1004.0 - 0.0
30/01:06pm 30.4 26.4 22.0 60 5.7 WSW 46 65 25 35 1004.1 - 0.0
30/01:00pm 30.3 26.6 22.5 63 5.3 WSW 46 63 25 34 1004.2 - 0.0
30/12:30pm 30.3 26.6 22.5 63 5.3 WSW 46 74 25 40 1004.1 - 0.0
30/12:05pm 29.4 25.6 22.4 66 4.8 WSW 46 69 25 37 1004.0 - 0.0
30/12:00pm 29.3 25.7 22.8 68 4.5 W 46 63 25 34 1004.2 1003.1 0.0
30/11:30am 28.7 25.6 22.9 71 4.0 W 44 63 24 34 1004.3 - 0.0
30/11:04am 28.1 26.3 23.0 74 3.5 W 37 56 20 30 1004.4 - 0.0
30/11:00am 28.1 26.0 23.0 74 3.5 WSW 39 50 21 27 1004.4 - 0.0
30/10:54am 28.0 27.0 23.6 77 3.0 W 35 50 19 27 1004.5 - 0.0
30/10:34am 26.6 26.3 23.9 85 1.9 W 32 50 17 27 1004.6 - 0.0
30/10:30am 26.1 26.2 24.0 88 1.5 W 30 41 16 22 1004.7 - 0.0
30/10:00am 25.5 25.8 24.3 93 0.8 W 30 43 16 23 1004.5 - 0.0
30/09:40am 25.0 24.8 24.1 95 0.6 W 32 50 17 27 1004.3 - 0.0
30/09:30am 24.9 24.7 24.4 97 0.3 W 33 46 18 25 1004.2 - 0.0
30/09:21am 24.6 25.3 24.3 98 0.2 W 28 48 15 26 1004.1 - 0.0
30/09:13am 24.9 26.9 24.6 98 0.2 W 22 32 12 17 1004.2 - 0.0
30/09:00am 24.5 25.1 24.2 98 0.2 WNW 28 46 15 25 1004.2 1003.1 48.2
30/08:58am 24.3 24.8 24.0 98 0.2 WNW 28 46 15 25 1004.1 - 48.2
30/08:30am 24.0 25.5 23.7 98 0.2 WNW 22 33 12 18 1003.8 - 48.2
30/08:23am 24.0 26.1 23.7 98 0.2 WNW 19 28 10 15 1003.7 - 48.2
30/08:00am 24.0 25.9 23.7 98 0.2 NW 20 30 11 16 1003.5 - 48.2
30/07:30am 23.5 25.3 23.2 98 0.2 NW 19 30 10 16 1002.9 - 48.2
30/07:00am 23.1 24.7 22.9 99 0.1 NW 19 32 10 17 1002.3 - 48.2
30/06:34am 23.0 24.0 22.8 99 0.1 NNW 22 33 12 18 1001.9 - 48.2
30/06:30am 23.0 24.4 22.8 99 0.1 NNW 20 33 11 18 1001.8 - 48.2
30/06:00am 23.1 23.8 22.9 99 0.1 NNW 24 33 13 18 1001.4 1000.3 48.0
30/05:30am 23.2 23.5 23.0 99 0.1 NNW 26 35 14 19 1001.0 - 48.0
30/05:00am 23.3 23.3 23.1 99 0.1 N 28 37 15 20 1000.4 - 48.0
30/04:30am 23.3 23.7 23.1 99 0.1 N 26 37 14 20 999.9 - 47.8
30/04:00am 23.4 23.5 23.2 99 0.1 N 28 39 15 21 999.5 - 47.4
30/03:33am 23.5 22.7 23.3 99 0.1 N 33 43 18 23 999.1 - 47.4
30/03:30am 23.5 22.7 23.3 99 0.1 N 33 44 18 24 999.0 - 47.4
30/03:25am 23.5 22.3 23.3 99 0.1 N 35 48 19 26 999.0 - 47.4
30/03:01am 23.5 22.9 23.3 99 0.1 N 32 50 17 27 998.8 - 47.4
30/03:00am 23.5 22.9 23.3 99 0.1 N 32 46 17 25 998.7 997.6 47.4
30/02:30am 23.6 23.4 23.4 99 0.1 N 30 48 16 26 998.7 - 47.0
30/02:26am 23.6 23.8 23.4 99 0.1 NNE 28 48 15 26 998.8 - 47.0
30/02:00am 23.6 23.0 23.4 99 0.1 NNE 32 43 17 23 998.7 - 46.6
30/01:30am 23.6 23.4 23.4 99 0.1 NE 30 43 16 23 999.1 - 45.4
30/01:00am 23.5 23.2 23.3 99 0.1 ENE 30 39 16 21 999.4 - 42.8
30/12:30am 23.5 24.0 23.3 99 0.1 ENE 26 37 14 20 1000.1 - 41.0
30/12:07am 23.6 23.8 23.4 99 0.1 ENE 28 46 15 25 1000.4 - 39.4
30/12:00am 23.6 23.8 23.4 99 0.1 ENE 28 41 15 22 1000.5 999.4 39.2
 
Date/Time
EST
Temp
°C
App
Temp
°C
Dew
Point
°C
Rel
Hum
%
Delta-T
°C
Wind Press
QNH
hPa
Press
MSL
hPa
Rain since
9am
mm
Dir  Spd
km/h
Gust
km/h
Spd
kts
Gust
kts
29/11:30pm 23.6 23.8 23.4 99 0.1 ENE 28 39 15 21 1000.9 - 38.6
29/11:00pm 23.6 23.8 23.4 99 0.1 ENE 28 43 15 23 1001.2 - 38.2
29/10:30pm 23.7 23.6 23.5 99 0.1 ENE 30 43 16 23 1001.5 - 37.0
29/10:00pm 23.7 23.6 23.5 99 0.1 E 30 37 16 20 1001.7 - 34.4
29/09:30pm 23.6 23.0 23.4 99 0.1 E 32 43 17 23 1002.1 - 29.8
29/09:00pm 23.7 23.6 23.5 99 0.1 E 30 41 16 22 1002.4 1001.4 26.8
29/08:30pm 23.7 23.6 23.5 99 0.1 E 30 37 16 20 1002.4 - 25.4
29/08:00pm 23.7 23.6 23.5 99 0.1 E 30 37 16 20 1002.2 - 24.2
29/07:42pm 23.8 23.1 23.6 99 0.1 E 33 50 18 27 1002.3 - 23.2
29/07:30pm 23.8 23.1 23.6 99 0.1 E 33 43 18 23 1002.2 - 23.0
29/07:20pm 23.7 22.6 23.5 99 0.1 E 35 43 19 23 1002.2 - 22.8
29/07:02pm 23.5 22.3 23.3 99 0.1 E 35 48 19 26 1002.2 - 22.6
29/07:00pm 23.5 22.3 23.3 99 0.1 E 35 48 19 26 1002.1 - 22.4
29/06:40pm 23.5 22.3 23.3 99 0.1 E 35 46 19 25 1002.2 - 22.2
29/06:30pm 23.4 22.1 23.2 99 0.1 E 35 46 19 25 1002.3 - 22.0
29/06:00pm 23.7 23.0 23.5 99 0.1 E 33 46 18 25 1002.4 1001.4 20.2
29/05:32pm 24.0 24.4 23.8 99 0.1 E 28 37 15 20 1002.5 - 17.8
29/05:30pm 24.0 24.8 23.8 99 0.1 E 26 35 14 19 1002.6 - 17.4
29/05:16pm 24.0 24.8 23.8 99 0.1 E 26 35 14 19 1002.4 - 16.6
29/05:00pm 24.0 25.2 23.8 99 0.1 ESE 24 33 13 18 1002.3 - 15.8
29/04:59pm 24.0 25.2 23.8 99 0.1 ESE 24 33 13 18 1002.3 - 15.6
29/04:58pm 24.0 25.2 23.8 99 0.1 ESE 24 33 13 18 1002.2 - 15.6
29/04:33pm 23.7 24.7 23.5 99 0.1 E 24 30 13 16 1002.4 - 13.6
29/04:30pm 23.8 24.9 23.6 99 0.1 E 24 33 13 18 1002.5 - 13.2
29/04:00pm 23.8 22.3 23.5 98 0.2 E 37 48 20 26 1002.2 - 12.4
29/03:57pm 24.0 23.0 23.7 98 0.2 E 35 46 19 25 1002.2 - 12.4
29/03:38pm 24.2 23.3 23.9 98 0.2 E 35 48 19 26 1002.4 - 11.8
29/03:31pm 24.2 23.3 23.9 98 0.2 E 35 46 19 25 1002.5 - 11.6
29/03:30pm 24.2 23.3 23.9 98 0.2 E 35 46 19 25 1002.5 - 11.4
29/03:08pm 24.2 23.3 23.9 98 0.2 ENE 35 50 19 27 1003.2 - 10.6
29/03:05pm 24.3 23.5 24.0 98 0.2 E 35 50 19 27 1003.2 - 10.4
29/03:00pm 24.5 24.4 24.2 98 0.2 E 32 43 17 23 1003.2 1002.1 10.0
29/02:44pm 24.4 22.9 24.1 98 0.2 E 39 52 21 28 1003.3 - 9.6
29/02:30pm 24.9 22.0 24.6 98 0.2 E 48 69 26 37 1003.3 - 9.6
29/02:29pm 24.9 21.6 24.6 98 0.2 E 50 69 27 37 1003.2 - 9.6
29/02:27pm 24.9 21.2 24.6 98 0.2 E 52 69 28 37 1003.1 - 9.6
29/02:07pm 24.6 22.3 24.3 98 0.2 ESE 44 67 24 36 1002.5 - 9.4
29/02:00pm 24.5 21.7 24.2 98 0.2 ESE 46 59 25 32 1002.4 - 9.0
29/01:51pm 24.7 22.6 24.4 98 0.2 ESE 43 56 23 30 1002.6 - 7.8
29/01:30pm 24.8 23.2 24.5 98 0.2 E 41 54 22 29 1003.4 - 6.8
29/01:02pm 25.1 23.6 24.8 98 0.2 ESE 41 63 22 34 1004.0 - 6.0
29/01:00pm 25.1 24.0 24.8 98 0.2 E 39 48 21 26 1004.1 - 6.0
29/12:50pm 24.9 24.5 24.6 98 0.2 E 35 54 19 29 1004.4 - 5.6
29/12:46pm 24.6 24.4 24.3 98 0.2 E 33 46 18 25 1004.6 - 5.4
29/12:44pm 24.6 24.4 24.3 98 0.2 E 33 46 18 25 1004.5 - 5.4
29/12:36pm 24.6 24.0 24.3 98 0.2 ESE 35 48 19 26 1004.8 - 5.0
29/12:33pm 24.6 23.6 24.3 98 0.2 ESE 37 48 20 26 1004.8 - 5.0
29/12:30pm 24.7 23.8 24.4 98 0.2 ESE 37 48 20 26 1004.8 - 5.0
29/12:20pm 24.4 23.7 24.1 98 0.2 E 35 48 19 26 1005.2 - 4.8
29/12:00pm 24.1 22.8 23.8 98 0.2 ESE 37 56 20 30 1005.5 1004.4 4.4
29/11:56am 24.1 22.8 23.8 98 0.2 ESE 37 56 20 30 1005.4 - 4.4
29/11:45am 24.0 23.6 23.7 98 0.2 ESE 32 44 17 24 1005.7 - 4.4
29/11:30am 23.7 22.6 23.4 98 0.2 ESE 35 46 19 25 1006.1 - 4.2
29/11:00am 23.8 21.2 23.5 98 0.2 E 43 56 23 30 1006.7 - 3.2
29/10:30am 23.6 20.9 23.3 98 0.2 E 43 54 23 29 1006.8 - 3.0
29/10:22am 23.6 20.9 23.3 98 0.2 ESE 43 57 23 31 1006.7 - 2.6
29/10:07am 23.5 20.5 23.2 98 0.2 E 44 61 24 33 1006.9 - 2.4
29/10:02am 23.7 21.0 23.4 98 0.2 E 43 61 23 33 1006.9 - 2.2
29/10:00am 23.7 21.0 23.4 98 0.2 E 43 57 23 31 1007.0 - 2.0
29/09:30am 24.7 21.7 23.8 95 0.6 E 46 70 25 38 1006.9 - 1.2
29/09:29am 24.9 22.4 24.0 95 0.6 E 44 70 24 38 1007.0 - 1.2
29/09:12am 25.1 23.3 24.8 98 0.2 ESE 43 54 23 29 1006.9 - 0.6
29/09:00am 24.9 24.1 24.6 98 0.2 ESE 37 46 20 25 1007.0 1006.0 11.8
29/08:53am 24.8 24.3 24.5 98 0.2 E 35 46 19 25 1007.2 - 11.6
29/08:30am 25.2 24.2 24.9 98 0.2 ESE 39 52 21 28 1007.2 - 10.8
29/08:00am 25.4 25.3 25.1 98 0.2 ESE 35 46 19 25 1006.5 - 10.4
29/07:30am 24.8 25.2 24.5 98 0.2 SE 30 39 16 21 1006.8 - 10.2
29/07:00am 24.5 25.1 24.2 98 0.2 SE 28 39 15 21 1006.5 - 10.2
29/06:30am 24.5 25.5 24.2 98 0.2 SE 26 33 14 18 1006.3 - 9.4
29/06:00am 24.2 25.1 23.9 98 0.2 SE 26 32 14 17 1006.0 1004.9 9.2
29/05:30am 23.8 24.8 23.5 98 0.2 SSE 24 30 13 16 1005.8 - 9.0
29/05:00am 23.9 24.2 23.6 98 0.2 SE 28 37 15 20 1005.6 - 8.8
29/04:30am 23.9 25.0 23.6 98 0.2 ESE 24 32 13 17 1005.6 - 8.8
29/04:00am 23.8 24.0 23.5 98 0.2 ESE 28 35 15 19 1006.1 - 8.4
29/03:30am 23.5 23.9 23.2 98 0.2 ESE 26 33 14 18 1006.0 - 7.6
29/03:00am 24.7 24.5 24.4 98 0.2 ESE 33 43 18 23 1006.2 1005.1 7.4
29/02:30am 24.6 24.4 24.3 98 0.2 SE 33 46 18 25 1006.1 - 7.0
29/02:00am 24.3 24.4 24.0 98 0.2 SE 30 39 16 21 1006.0 - 6.8
29/01:30am 24.3 24.8 24.0 98 0.2 SE 28 37 15 20 1006.4 - 6.6
29/01:00am 24.3 25.2 24.0 98 0.2 SE 26 35 14 19 1006.6 - 6.4
29/12:30am 24.2 24.7 23.9 98 0.2 SE 28 35 15 19 1007.0 - 6.0
29/12:00am 24.2 25.1 23.9 98 0.2 SE 26 32 14 17 1007.4 1006.4 5.2
 
Date/Time
EST
Temp
°C
App
Temp
°C
Dew
Point
°C
Rel
Hum
%
Delta-T
°C
Wind Press
QNH
hPa
Press
MSL
hPa
Rain since
9am
mm
Dir  Spd
km/h
Gust
km/h
Spd
kts
Gust
kts
28/11:54pm 24.2 25.5 24.0 99 0.1 SE 24 30 13 16 1007.6 - 5.2
28/11:30pm 24.2 25.8 23.9 98 0.2 SE 22 30 12 16 1007.7 - 3.4
28/11:29pm 24.2 25.8 23.9 98 0.2 SE 22 30 12 16 1007.7 - 3.4
28/11:00pm 24.5 25.9 24.2 98 0.2 SE 24 32 13 17 1008.3 - 1.8
28/10:30pm 24.6 26.1 24.3 98 0.2 SE 24 33 13 18 1008.6 - 0.8
28/10:00pm 24.8 25.2 24.5 98 0.2 SSE 30 39 16 21 1008.7 - 0.4
28/09:30pm 25.2 25.3 24.0 93 0.8 SE 30 37 16 20 1008.9 - 0.2
28/09:00pm 25.4 24.7 23.6 90 1.2 SSE 33 44 18 24 1008.1 1007.1 0.2
28/08:30pm 25.4 25.3 23.5 89 1.3 SSE 30 37 16 20 1007.9 - 0.2
28/08:00pm 25.1 25.2 23.3 90 1.2 SSE 28 37 15 20 1007.6 - 0.2
28/07:30pm 24.9 24.5 23.1 90 1.2 SE 30 37 16 20 1007.5 - 0.2
28/07:00pm 24.8 24.7 23.6 93 0.8 SE 30 39 16 21 1007.6 - 0.2
28/06:30pm 24.9 25.1 23.5 92 1.0 SSE 28 41 15 22 1007.5 - 0.2
28/06:00pm 24.9 25.6 23.7 93 0.8 SE 26 39 14 21 1007.3 1006.3 0.2
28/05:30pm 25.6 25.6 23.1 86 1.7 SE 28 37 15 20 1007.0 - 0.2
28/05:00pm 26.4 27.0 23.5 84 2.0 SE 26 35 14 19 1006.9 - 0.2
28/04:30pm 26.3 26.6 23.6 85 1.9 SE 28 44 15 24 1006.6 - 0.2
28/04:00pm 28.1 26.9 22.6 72 3.8 SE 33 46 18 25 1006.6 - 0.2
28/03:30pm 28.4 26.8 22.6 71 4.0 ESE 35 44 19 24 1006.6 - 0.2
28/03:00pm 28.8 28.3 22.8 70 4.1 ESE 30 39 16 21 1006.3 1005.2 0.2
28/02:30pm 28.4 27.2 22.6 71 4.0 ESE 33 43 18 23 1006.0 - 0.2
28/02:00pm 28.5 26.5 23.2 73 3.7 ESE 39 50 21 27 1006.3 - 0.2
28/01:45pm 28.1 27.7 23.0 74 3.5 ESE 30 48 16 26 1006.6 - 0.2
28/01:30pm 27.5 29.0 24.3 83 2.2 E 24 33 13 18 1006.9 - 0.2
28/01:00pm 26.8 28.9 24.1 85 1.9 SE 20 30 11 16 1007.4 - 0.2
28/12:30pm 26.5 26.7 23.4 83 2.1 SE 28 35 15 19 1007.9 - 0.0
28/12:00pm 28.2 28.1 22.2 70 4.1 SE 26 37 14 20 1008.0 1007.0 0.0
28/11:30am 28.0 26.5 21.8 69 4.2 SE 32 41 17 22 1008.5 - 0.0
28/11:00am 28.6 27.8 22.3 68 4.3 SE 30 41 16 22 1009.1 - 0.0
28/10:30am 28.1 26.2 21.4 67 4.5 SE 33 43 18 23 1009.2 - 0.0
28/10:00am 27.8 26.7 21.8 70 4.0 SE 30 39 16 21 1009.5 - 0.0
28/09:30am 26.6 26.0 22.0 76 3.1 SE 28 35 15 19 1009.4 - 0.0
28/09:00am 25.6 24.7 21.5 78 2.7 SSE 28 35 15 19 1009.4 1008.3 0.0
28/08:30am 25.2 23.4 21.1 78 2.7 SSE 32 39 17 21 1009.4 - 0.0
28/08:00am 25.0 24.3 21.1 79 2.6 SSE 26 33 14 18 1009.2 - 0.0
28/07:30am 24.8 24.0 20.9 79 2.6 SSE 26 35 14 19 1008.9 - 0.0
28/07:00am 24.6 24.2 20.9 80 2.4 SSE 24 35 13 19 1008.7 - 0.0
28/06:30am 24.4 24.8 20.9 81 2.3 SSE 20 32 11 17 1008.7 - 0.0
28/06:00am 24.5 24.9 21.0 81 2.3 SSE 20 30 11 16 1008.6 1007.5 0.0
28/05:30am 24.6 25.6 21.1 81 2.3 S 17 22 9 12 1008.5 - 0.0
28/05:00am 25.0 26.0 21.1 79 2.6 SSE 17 24 9 13 1008.4 - 0.0
28/04:30am 25.1 26.1 21.0 78 2.7 SSE 17 22 9 12 1008.0 - 0.0
28/04:00am 24.9 26.1 20.6 77 2.8 SSE 15 20 8 11 1007.8 - 0.0
28/03:30am 25.4 25.8 20.6 75 3.2 SSE 19 24 10 13 1007.7 - 0.0
28/03:00am 25.5 25.9 20.7 75 3.2 SSE 19 24 10 13 1007.8 1006.8 0.0
28/02:30am 25.6 26.5 20.8 75 3.2 SSE 17 22 9 12 1008.3 - 0.0
28/02:00am 26.1 26.5 20.7 72 3.6 SSE 19 24 10 13 1008.9 - 0.0
28/01:30am 26.4 26.6 20.5 70 3.9 SE 20 26 11 14 1008.9 - 0.0
28/01:00am 26.5 26.8 20.8 71 3.8 SE 20 26 11 14 1009.2 - 0.0

Other Formats:

Comma delimited format used in spreadsheet applications
http://www.bom.gov.au/fwo/IDQ60801/IDQ60801.94363.axf

JavaScript Object Notation format (JSON) in row-major order
http://www.bom.gov.au/fwo/IDQ60801/IDQ60801.94363.json